Time;durP1;ratioP1;P1;durP2;ratioP2;P2;SDS_P1;SDS_P2;PMS_P1;PMS_P2;Temp;Humidity;BMP_temperature;BMP_pressure;BME280_temperature;BME280_humidity;BME280_pressure;Samples;Min_cycle;Max_cycle;Signal;HPM_P1;HPM_P2
2024/02/28 00:01:23;;;;;;;12.40;9.23;;;11.40;88.10;;;;;;5053340;28;20025;-80
2024/02/28 00:03:48;;;;;;;12.68;9.30;;;11.40;88.10;;;;;;5053269;28;20028;-80
2024/02/28 00:06:16;;;;;;;13.15;9.88;;;11.40;88.10;;;;;;5035460;28;20067;-80
2024/02/28 00:08:42;;;;;;;12.25;9.35;;;11.40;88.10;;;;;;5053364;28;20017;-80
2024/02/28 00:11:07;;;;;;;12.43;9.25;;;11.40;88.10;;;;;;5053348;28;20385;-80
2024/02/28 00:13:33;;;;;;;12.52;9.63;;;11.40;88.10;;;;;;5034975;28;20579;-80
2024/02/28 00:15:58;;;;;;;11.88;9.23;;;11.40;88.20;;;;;;5035307;28;20079;-79
2024/02/28 00:18:24;;;;;;;12.43;9.32;;;11.40;88.20;;;;;;5035480;28;20021;-79
2024/02/28 00:20:49;;;;;;;12.13;9.25;;;11.40;88.20;;;;;;5035258;28;20663;-79
2024/02/28 00:23:15;;;;;;;11.75;9.00;;;11.40;88.20;;;;;;5052821;28;20048;-79
2024/02/28 00:25:40;;;;;;;12.25;9.27;;;11.40;88.20;;;;;;5035027;28;20509;-80
2024/02/28 00:28:06;;;;;;;12.40;9.00;;;11.40;88.20;;;;;;5034859;28;20036;-80
2024/02/28 00:30:32;;;;;;;12.18;9.27;;;11.40;88.20;;;;;;5034952;28;20818;-79
2024/02/28 00:33:00;;;;;;;12.45;9.32;;;11.40;88.20;;;;;;5035231;28;20056;-79
2024/02/28 00:35:25;;;;;;;13.63;10.00;;;11.40;88.20;;;;;;5034755;28;20017;-80
2024/02/28 00:37:51;;;;;;;12.07;9.30;;;11.40;88.20;;;;;;5034981;28;20379;-80
2024/02/28 00:40:16;;;;;;;13.48;9.65;;;11.40;88.20;;;;;;5034953;28;20515;-79
2024/02/28 00:42:42;;;;;;;12.63;9.50;;;11.40;88.20;;;;;;5034732;28;20029;-79
2024/02/28 00:45:09;;;;;;;11.90;8.93;;;11.40;88.20;;;;;;5034338;28;20060;-79
2024/02/28 00:47:35;;;;;;;11.90;9.30;;;11.40;88.10;;;;;;5052593;28;20025;-80
2024/02/28 00:50:02;;;;;;;12.18;9.10;;;11.40;88.10;;;;;;5034823;28;20531;-80
2024/02/28 00:52:28;;;;;;;12.52;9.48;;;11.40;88.10;;;;;;5052543;28;20478;-80
2024/02/28 00:54:54;;;;;;;11.98;9.25;;;11.40;88.10;;;;;;5034691;28;20079;-79
2024/02/28 00:57:19;;;;;;;13.57;10.40;;;11.40;88.10;;;;;;5034779;28;20493;-79
2024/02/28 00:59:45;;;;;;;12.55;9.50;;;11.40;88.10;;;;;;5034714;28;20059;-79
2024/02/28 01:02:10;;;;;;;12.60;9.75;;;11.40;88.10;;;;;;5034455;28;20043;-79
2024/02/28 01:04:36;;;;;;;12.48;9.43;;;11.40;88.10;;;;;;5034586;28;20107;-79
2024/02/28 01:07:01;;;;;;;13.02;9.80;;;11.40;88.10;;;;;;5034782;28;20025;-80
2024/02/28 01:09:27;;;;;;;12.88;9.32;;;11.40;88.10;;;;;;5034623;28;20029;-79
2024/02/28 01:11:53;;;;;;;12.82;9.65;;;11.40;88.10;;;;;;5034550;28;20025;-78
2024/02/28 01:14:18;;;;;;;11.52;8.82;;;11.30;88.00;;;;;;5051912;28;20025;-80
2024/02/28 01:16:43;;;;;;;13.70;10.02;;;11.30;88.10;;;;;;5034518;28;20025;-79
2024/02/28 01:19:09;;;;;;;11.52;9.10;;;11.40;88.10;;;;;;5052503;28;20033;-79
2024/02/28 01:21:34;;;;;;;13.10;9.63;;;11.40;88.20;;;;;;5052139;28;20033;-79
2024/02/28 01:24:00;;;;;;;12.40;9.52;;;11.40;88.10;;;;;;5034158;28;20486;-79
2024/02/28 01:26:25;;;;;;;11.98;9.25;;;11.40;88.10;;;;;;5052028;28;20052;-79
2024/02/28 01:28:51;;;;;;;12.75;9.45;;;11.40;88.00;;;;;;5034390;28;20033;-80
2024/02/28 01:31:17;;;;;;;12.73;9.80;;;11.30;88.00;;;;;;5052200;28;20022;-79
2024/02/28 01:33:42;;;;;;;12.13;9.57;;;11.30;88.00;;;;;;5034245;28;20017;-79
2024/02/28 01:36:08;;;;;;;12.15;9.43;;;11.40;88.10;;;;;;5052460;28;20032;-80
2024/02/28 01:38:33;;;;;;;12.30;9.05;;;11.30;88.00;;;;;;5034234;28;20025;-79
2024/02/28 01:40:58;;;;;;;13.00;9.73;;;11.30;88.00;;;;;;5034359;28;20043;-79
2024/02/28 01:43:24;;;;;;;12.20;9.38;;;11.40;88.00;;;;;;5034136;28;20043;-80
2024/02/28 01:45:50;;;;;;;12.88;9.85;;;11.30;88.00;;;;;;5034387;28;20022;-79
2024/02/28 01:48:16;;;;;;;12.95;9.80;;;11.30;88.00;;;;;;5034140;28;20029;-79
2024/02/28 01:50:41;;;;;;;12.95;9.80;;;11.30;88.00;;;;;;5051910;28;20032;-79
2024/02/28 01:53:09;;;;;;;13.05;9.75;;;11.40;88.10;;;;;;5052038;28;20021;-79
2024/02/28 01:55:35;;;;;;;12.52;9.90;;;11.30;88.00;;;;;;5034237;28;20032;-79
2024/02/28 01:58:02;;;;;;;12.55;9.55;;;11.30;88.00;;;;;;5037066;28;20033;-80
2024/02/28 02:00:28;;;;;;;12.95;10.00;;;11.30;88.00;;;;;;5037836;28;20021;-80
2024/02/28 02:02:54;;;;;;;13.30;10.02;;;11.30;88.00;;;;;;5037818;28;20033;-79
2024/02/28 02:05:20;;;;;;;12.35;9.50;;;11.30;87.90;;;;;;5037732;28;20078;-80
2024/02/28 02:07:48;;;;;;;13.23;10.00;;;11.40;88.00;;;;;;5055608;28;20466;-79
2024/02/28 02:10:14;;;;;;;13.00;9.90;;;11.30;88.00;;;;;;5054408;28;20052;-78
2024/02/28 02:12:39;;;;;;;13.13;10.20;;;11.30;88.00;;;;;;5054700;28;20056;-77
2024/02/28 02:15:05;;;;;;;12.77;9.98;;;11.30;88.00;;;;;;5037792;28;20434;-80
2024/02/28 02:17:30;;;;;;;12.82;9.82;;;11.30;88.00;;;;;;5055443;28;20032;-79
2024/02/28 02:19:56;;;;;;;13.10;9.52;;;11.30;88.00;;;;;;5055343;28;20151;-79
2024/02/28 02:22:26;;;;;;;12.05;9.15;;;11.30;87.90;;;;;;5037139;28;20024;-80
2024/02/28 02:24:51;;;;;;;13.15;9.45;;;11.30;87.90;;;;;;5037412;28;20074;-79
2024/02/28 02:27:17;;;;;;;12.77;9.55;;;11.30;88.00;;;;;;5055152;28;20468;-77
2024/02/28 02:29:42;;;;;;;12.90;9.65;;;11.30;88.00;;;;;;5037384;28;20025;-79
2024/02/28 02:32:07;;;;;;;13.65;10.23;;;11.30;88.00;;;;;;5037145;28;20033;-79
2024/02/28 02:34:33;;;;;;;13.45;10.40;;;11.30;88.00;;;;;;5055180;28;20485;-80
2024/02/28 02:36:59;;;;;;;13.00;9.57;;;11.30;88.00;;;;;;5037651;28;20064;-79
2024/02/28 02:39:24;;;;;;;13.63;10.20;;;11.30;88.00;;;;;;5037141;28;20056;-80
2024/02/28 02:41:50;;;;;;;13.13;9.85;;;11.30;88.00;;;;;;5054743;28;20033;-78
2024/02/28 02:44:16;;;;;;;13.75;10.25;;;11.30;88.00;;;;;;5037278;28;20087;-79
2024/02/28 02:46:41;;;;;;;13.15;9.90;;;11.30;88.00;;;;;;5053675;28;20500;-79
2024/02/28 02:49:07;;;;;;;12.77;9.73;;;11.30;88.00;;;;;;5037449;28;20013;-80
2024/02/28 02:51:32;;;;;;;13.00;9.82;;;11.30;88.00;;;;;;5036923;28;20024;-79
2024/02/28 02:53:57;;;;;;;12.77;9.63;;;11.30;88.00;;;;;;5036835;28;20059;-80
2024/02/28 02:56:23;;;;;;;13.20;10.20;;;11.30;88.00;;;;;;5054699;28;20029;-79
2024/02/28 02:58:49;;;;;;;13.13;9.68;;;11.30;88.00;;;;;;5036698;28;20520;-79
2024/02/28 03:01:14;;;;;;;13.07;10.13;;;11.30;88.00;;;;;;5036803;28;20513;-79
2024/02/28 03:03:39;;;;;;;12.00;9.15;;;11.30;87.90;;;;;;5052891;28;20048;-79
2024/02/28 03:06:06;;;;;;;12.88;9.65;;;11.30;88.00;;;;;;5036380;28;20469;-79
2024/02/28 03:08:32;;;;;;;14.32;10.18;;;11.30;87.90;;;;;;5054115;28;20036;-79
2024/02/28 03:10:57;;;;;;;14.07;10.68;;;11.30;88.00;;;;;;5036750;28;20640;-79
2024/02/28 03:13:23;;;;;;;13.32;10.05;;;11.30;87.90;;;;;;5036058;28;20052;-79
2024/02/28 03:15:48;;;;;;;15.07;10.35;;;11.30;87.90;;;;;;5054681;28;20413;-80
2024/02/28 03:18:14;;;;;;;13.25;9.88;;;11.30;87.90;;;;;;5054155;28;20025;-79
2024/02/28 03:20:39;;;;;;;13.00;9.70;;;11.30;87.90;;;;;;5036327;28;20057;-79
2024/02/28 03:23:06;;;;;;;13.20;9.95;;;11.30;87.90;;;;;;5036250;28;20068;-79
2024/02/28 03:25:32;;;;;;;12.68;10.35;;;11.30;87.90;;;;;;5036291;28;20599;-79
2024/02/28 03:27:59;;;;;;;12.55;9.27;;;11.30;87.90;;;;;;5036034;28;20043;-79
2024/02/28 03:30:25;;;;;;;12.82;9.55;;;11.30;87.90;;;;;;5054162;28;20024;-79
2024/02/28 03:32:50;;;;;;;14.15;10.40;;;11.30;87.90;;;;;;5035983;28;20025;-79
2024/02/28 03:35:16;;;;;;;13.55;10.07;;;11.30;88.00;;;;;;5036230;28;20474;-80
2024/02/28 03:37:41;;;;;;;13.80;10.52;;;11.30;87.90;;;;;;5036092;28;20028;-79
2024/02/28 03:40:07;;;;;;;12.80;9.40;;;11.30;87.90;;;;;;5036248;28;20025;-80
2024/02/28 03:42:33;;;;;;;13.93;9.90;;;11.30;87.90;;;;;;5053588;28;20029;-79
2024/02/28 03:44:58;;;;;;;14.05;10.35;;;11.30;87.90;;;;;;5053733;28;20025;-79
2024/02/28 03:47:24;;;;;;;13.07;10.23;;;11.30;87.90;;;;;;5053609;28;20938;-80
2024/02/28 03:49:50;;;;;;;13.00;9.80;;;11.30;87.90;;;;;;5053722;28;20031;-79
2024/02/28 03:52:15;;;;;;;12.95;9.35;;;11.30;87.90;;;;;;5033742;28;20021;-78
2024/02/28 03:54:44;;;;;;;13.85;10.30;;;11.30;87.90;;;;;;5034415;28;20025;-79
2024/02/28 03:57:10;;;;;;;13.68;10.02;;;11.30;87.90;;;;;;5035508;28;20025;-79
2024/02/28 03:59:35;;;;;;;13.55;10.20;;;11.30;87.90;;;;;;5035891;28;20079;-79
2024/02/28 04:02:01;;;;;;;13.68;10.00;;;11.30;87.90;;;;;;5053270;28;20087;-79
2024/02/28 04:04:26;;;;;;;14.15;10.40;;;11.30;87.90;;;;;;5053446;28;20029;-78
2024/02/28 04:06:52;;;;;;;12.48;9.68;;;11.30;87.90;;;;;;5035611;28;20049;-79
2024/02/28 04:09:17;;;;;;;12.95;9.88;;;11.30;87.90;;;;;;5053615;28;20025;-79
2024/02/28 04:11:43;;;;;;;13.50;10.05;;;11.30;87.90;;;;;;5035324;28;20116;-80
2024/02/28 04:14:09;;;;;;;13.52;10.02;;;11.30;87.90;;;;;;5033536;28;20116;-84
2024/02/28 04:16:34;;;;;;;12.60;9.88;;;11.30;87.80;;;;;;5034084;28;20020;-82
2024/02/28 04:19:00;;;;;;;13.57;9.82;;;11.30;87.90;;;;;;5049897;28;20040;-82
2024/02/28 04:21:25;;;;;;;12.65;9.73;;;11.30;87.90;;;;;;5033480;28;20425;-81
2024/02/28 04:23:51;;;;;;;12.90;9.77;;;11.30;87.80;;;;;;5034170;28;20039;-82
2024/02/28 04:26:16;;;;;;;13.85;10.38;;;11.30;87.90;;;;;;5034088;28;20059;-80
2024/02/28 04:28:42;;;;;;;13.30;9.63;;;11.30;87.90;;;;;;5034238;28;20037;-80
2024/02/28 04:31:09;;;;;;;12.68;9.57;;;11.30;87.80;;;;;;5033954;28;20017;-80
2024/02/28 04:33:35;;;;;;;12.05;9.32;;;11.30;87.80;;;;;;5034424;28;20017;-81
2024/02/28 04:36:01;;;;;;;13.38;9.73;;;11.30;87.80;;;;;;5051884;28;20036;-79
2024/02/28 04:38:26;;;;;;;12.88;10.13;;;11.30;87.80;;;;;;5033873;28;20029;-80
2024/02/28 04:40:52;;;;;;;13.55;10.00;;;11.30;87.90;;;;;;5033672;28;20029;-80
2024/02/28 04:43:17;;;;;;;13.10;9.52;;;11.30;87.80;;;;;;5033627;28;20036;-81
2024/02/28 04:45:43;;;;;;;13.50;9.60;;;11.30;87.80;;;;;;5034252;28;20505;-79
2024/02/28 04:48:08;;;;;;;13.07;9.63;;;11.30;87.90;;;;;;5033958;28;20111;-81
2024/02/28 04:50:34;;;;;;;12.82;9.80;;;11.30;87.90;;;;;;5052095;28;20047;-81
2024/02/28 04:52:59;;;;;;;12.32;9.38;;;11.30;87.80;;;;;;5032733;28;20028;-80
2024/02/28 04:55:25;;;;;;;13.20;9.40;;;11.30;88.40;;;;;;5032269;28;20024;-80
2024/02/28 04:57:50;;;;;;;12.98;9.57;;;11.20;87.80;;;;;;5031354;28;20009;-78
2024/02/28 05:00:16;;;;;;;13.43;10.20;;;11.20;87.80;;;;;;5031875;28;20522;-80
2024/02/28 05:02:41;;;;;;;12.70;9.75;;;11.20;87.80;;;;;;5031071;28;20025;-79
2024/02/28 05:05:07;;;;;;;13.65;10.02;;;11.30;87.80;;;;;;5031953;28;20111;-80
2024/02/28 05:07:32;;;;;;;13.27;10.18;;;11.20;87.80;;;;;;5031510;28;20129;-81
2024/02/28 05:09:58;;;;;;;13.45;10.25;;;11.30;87.90;;;;;;5050343;28;20025;-81
2024/02/28 05:12:23;;;;;;;13.40;10.02;;;11.30;87.80;;;;;;5049754;28;20025;-82
2024/02/28 05:14:49;;;;;;;13.70;10.05;;;11.20;87.80;;;;;;5033015;28;20112;-82
2024/02/28 05:17:14;;;;;;;13.40;10.18;;;11.30;87.70;;;;;;5032809;28;20063;-77
2024/02/28 05:19:40;;;;;;;13.43;9.65;;;11.30;87.80;;;;;;5033578;28;20021;-79
2024/02/28 05:22:05;;;;;;;13.20;10.13;;;11.30;87.80;;;;;;5034343;28;20040;-79
2024/02/28 05:24:31;;;;;;;13.50;10.15;;;11.30;87.80;;;;;;5052179;28;20025;-79
2024/02/28 05:26:56;;;;;;;14.02;10.07;;;11.30;87.80;;;;;;5034330;28;20029;-79
2024/02/28 05:29:22;;;;;;;11.70;8.90;;;11.30;87.80;;;;;;5034386;28;20032;-79
2024/02/28 05:31:47;;;;;;;14.35;10.20;;;11.20;87.70;;;;;;5036982;28;20089;-77
2024/02/28 05:34:13;;;;;;;14.40;10.48;;;11.30;87.80;;;;;;5038417;28;20482;-79
2024/02/28 05:36:40;;;;;;;13.55;10.15;;;11.30;87.80;;;;;;5038363;28;20132;-79
2024/02/28 05:39:08;;;;;;;13.50;10.02;;;11.30;87.80;;;;;;5055962;28;20021;-79
2024/02/28 05:41:33;;;;;;;13.95;10.05;;;11.20;87.70;;;;;;5038221;28;20025;-79
2024/02/28 05:43:59;;;;;;;13.00;9.63;;;11.30;87.80;;;;;;5038024;28;20035;-79
2024/02/28 05:46:24;;;;;;;13.75;9.50;;;11.30;87.80;;;;;;5038137;28;20428;-79
2024/02/28 05:48:50;;;;;;;14.45;10.50;;;11.20;87.90;;;;;;5055993;28;20056;-79
2024/02/28 05:51:16;;;;;;;14.35;10.43;;;11.20;87.70;;;;;;5037945;28;20028;-79
2024/02/28 05:53:42;;;;;;;13.63;10.00;;;11.20;87.80;;;;;;5034903;28;20032;-79
2024/02/28 05:56:15;;;;;;;14.00;10.10;;;11.30;87.80;;;;;;5028786;28;20493;-79
2024/02/28 05:58:43;;;;;;;13.70;10.20;;;11.30;87.80;;;;;;5037807;28;20052;-78
2024/02/28 06:01:10;;;;;;;13.02;9.85;;;11.20;87.80;;;;;;5037927;28;20451;-79
2024/02/28 06:03:36;;;;;;;12.85;9.45;;;11.20;87.80;;;;;;5053334;28;20098;-79
2024/02/28 06:06:04;;;;;;;13.13;10.05;;;11.20;87.80;;;;;;5037644;28;20029;-79
2024/02/28 06:08:31;;;;;;;13.23;9.43;;;11.20;87.80;;;;;;5037429;28;20025;-79
2024/02/28 06:10:56;;;;;;;13.18;9.85;;;11.20;87.70;;;;;;5037636;28;20032;-79
2024/02/28 06:13:22;;;;;;;13.55;10.32;;;11.20;87.80;;;;;;5037369;28;20017;-79
2024/02/28 06:15:47;;;;;;;13.82;10.15;;;11.20;87.80;;;;;;5055426;28;20037;-79
2024/02/28 06:18:13;;;;;;;14.38;10.50;;;11.20;87.80;;;;;;5055386;28;20417;-79
2024/02/28 06:20:38;;;;;;;13.93;9.88;;;11.20;87.70;;;;;;5037558;28;20048;-79
2024/02/28 06:23:04;;;;;;;13.82;10.00;;;11.20;87.60;;;;;;5037391;28;20025;-79
2024/02/28 06:25:33;;;;;;;13.45;10.02;;;11.20;87.60;;;;;;5037349;28;20107;-79
2024/02/28 06:27:59;;;;;;;12.88;9.93;;;11.20;87.70;;;;;;5037181;28;20504;-79
2024/02/28 06:30:25;;;;;;;13.77;9.73;;;11.20;87.70;;;;;;5055206;28;20025;-79
2024/02/28 06:32:50;;;;;;;13.88;9.88;;;11.20;87.60;;;;;;5037194;28;20021;-79
2024/02/28 06:35:16;;;;;;;13.60;10.07;;;11.30;87.70;;;;;;5037382;28;20545;-79
2024/02/28 06:37:44;;;;;;;13.55;9.85;;;11.20;87.70;;;;;;5037083;28;20029;-79
2024/02/28 06:40:09;;;;;;;13.93;9.90;;;11.20;87.70;;;;;;5055083;28;20025;-79
2024/02/28 06:42:36;;;;;;;14.55;10.65;;;11.20;87.60;;;;;;5036020;28;20040;-79
2024/02/28 06:45:03;;;;;;;13.38;9.43;;;11.20;87.70;;;;;;5037123;28;20429;-79
2024/02/28 06:47:29;;;;;;;14.15;9.75;;;11.20;87.60;;;;;;5036904;28;20036;-79
2024/02/28 06:49:55;;;;;;;14.27;10.18;;;11.20;87.60;;;;;;5037073;28;20024;-79
2024/02/28 06:52:20;;;;;;;14.70;10.07;;;11.20;87.60;;;;;;5054724;28;20021;-79
2024/02/28 06:54:46;;;;;;;14.75;10.38;;;11.20;87.60;;;;;;5054827;28;20478;-79
2024/02/28 06:57:12;;;;;;;14.32;10.10;;;11.20;87.60;;;;;;5054597;28;20040;-79
2024/02/28 06:59:38;;;;;;;13.90;9.82;;;11.20;87.50;;;;;;5054709;28;20045;-79
2024/02/28 07:02:04;;;;;;;13.93;9.85;;;11.20;87.60;;;;;;5036335;28;20067;-79
2024/02/28 07:04:30;;;;;;;13.90;9.82;;;11.20;87.50;;;;;;5036738;28;20025;-79
2024/02/28 07:06:55;;;;;;;14.15;9.60;;;11.20;87.60;;;;;;5036631;28;20040;-79
2024/02/28 07:09:21;;;;;;;14.52;10.18;;;11.20;87.60;;;;;;5054640;28;20091;-79
2024/02/28 07:11:46;;;;;;;15.65;10.45;;;11.20;87.60;;;;;;5054405;28;20045;-79
2024/02/28 07:14:12;;;;;;;15.15;10.18;;;11.20;87.60;;;;;;5036480;28;20501;-79
2024/02/28 07:16:37;;;;;;;16.05;10.57;;;11.20;87.60;;;;;;5036202;28;20028;-79
2024/02/28 07:19:03;;;;;;;14.82;10.48;;;11.20;87.60;;;;;;5036418;28;20028;-79
2024/02/28 07:21:30;;;;;;;15.32;10.30;;;11.20;87.60;;;;;;5036429;28;20033;-79
2024/02/28 07:23:56;;;;;;;14.15;9.70;;;11.20;87.60;;;;;;5036195;28;20032;-79
2024/02/28 07:26:21;;;;;;;14.70;10.50;;;11.20;87.60;;;;;;5036233;28;20028;-78
2024/02/28 07:28:49;;;;;;;12.88;9.40;;;11.20;87.60;;;;;;5053875;28;20098;-79
2024/02/28 07:31:16;;;;;;;14.25;9.80;;;11.20;87.60;;;;;;5054039;28;20021;-79
2024/02/28 07:33:42;;;;;;;14.32;9.98;;;11.20;87.60;;;;;;5035858;28;20405;-79
2024/02/28 07:36:08;;;;;;;15.88;10.20;;;11.20;87.60;;;;;;5036097;28;20028;-80
2024/02/28 07:38:33;;;;;;;13.82;9.63;;;11.20;87.50;;;;;;5035912;28;20037;-80
2024/02/28 07:40:59;;;;;;;15.75;10.75;;;11.20;87.60;;;;;;5035987;28;20032;-80
2024/02/28 07:43:24;;;;;;;14.57;10.07;;;11.20;87.60;;;;;;5035887;28;20029;-80
2024/02/28 07:45:50;;;;;;;14.98;9.68;;;11.20;87.70;;;;;;5035981;28;20485;-78
2024/02/28 07:48:17;;;;;;;14.35;9.60;;;11.20;87.60;;;;;;5035775;28;20052;-78
2024/02/28 07:50:44;;;;;;;15.65;9.85;;;11.20;87.60;;;;;;5035893;28;20478;-78
2024/02/28 07:53:09;;;;;;;16.10;10.20;;;11.20;87.60;;;;;;5053488;28;20025;-78
2024/02/28 07:55:35;;;;;;;13.90;9.63;;;11.20;87.60;;;;;;5035557;28;20492;-78
2024/02/28 07:58:01;;;;;;;13.82;9.20;;;11.20;87.60;;;;;;5053414;28;20021;-78
2024/02/28 08:00:26;;;;;;;15.23;9.50;;;11.20;87.60;;;;;;5053439;28;20032;-79
2024/02/28 08:02:52;;;;;;;15.00;9.68;;;11.20;87.60;;;;;;5035029;28;20021;-79
2024/02/28 08:05:18;;;;;;;14.98;10.00;;;11.20;87.60;;;;;;5035536;28;20397;-77
2024/02/28 08:07:43;;;;;;;14.65;9.88;;;11.20;87.60;;;;;;5053232;28;20021;-80
2024/02/28 08:10:10;;;;;;;14.63;10.18;;;11.20;87.60;;;;;;5035472;28;20021;-80
2024/02/28 08:12:36;;;;;;;14.18;9.88;;;11.20;87.60;;;;;;5035214;28;20021;-80
2024/02/28 08:15:02;;;;;;;13.82;9.82;;;11.20;87.60;;;;;;5035464;28;20155;-80
2024/02/28 08:17:28;;;;;;;14.73;9.82;;;11.20;87.50;;;;;;5035275;28;20025;-80
2024/02/28 08:19:54;;;;;;;14.65;9.73;;;11.20;87.50;;;;;;5035237;28;20028;-79
2024/02/28 08:22:20;;;;;;;14.45;9.80;;;11.20;87.60;;;;;;5034994;28;20025;-80
2024/02/28 08:24:45;;;;;;;13.57;9.10;;;11.20;87.60;;;;;;5053119;28;20029;-80
2024/02/28 08:27:11;;;;;;;13.80;9.48;;;11.20;87.60;;;;;;5034814;28;20036;-79
2024/02/28 08:29:43;;;;;;;14.55;9.85;;;11.20;87.60;;;;;;5035278;28;20025;-80
2024/02/28 08:32:09;;;;;;;13.65;9.40;;;11.20;87.60;;;;;;5034730;28;20091;-78
2024/02/28 08:34:35;;;;;;;15.05;9.77;;;11.20;87.50;;;;;;5034847;28;20052;-77
2024/02/28 08:37:00;;;;;;;15.50;9.63;;;11.20;87.60;;;;;;5035011;28;20044;-79
2024/02/28 08:39:26;;;;;;;14.13;9.50;;;11.20;87.60;;;;;;5033968;28;20739;-75
2024/02/28 08:41:51;;;;;;;12.85;9.02;;;11.20;87.60;;;;;;5050961;28;20112;-76
2024/02/28 08:44:17;;;;;;;15.60;10.38;;;11.20;87.60;;;;;;5033450;28;20025;-76
2024/02/28 08:46:43;;;;;;;15.15;10.40;;;11.20;87.60;;;;;;5050914;28;20087;-75
2024/02/28 08:49:08;;;;;;;14.40;9.93;;;11.20;87.50;;;;;;5033191;28;20470;-76
2024/02/28 08:51:34;;;;;;;15.05;9.40;;;11.20;87.50;;;;;;5050913;28;20021;-76
2024/02/28 08:54:00;;;;;;;14.13;9.60;;;11.20;87.60;;;;;;5032785;28;20017;-75
2024/02/28 08:56:25;;;;;;;15.27;10.30;;;11.20;87.50;;;;;;5033009;28;20505;-76
2024/02/28 08:58:51;;;;;;;14.73;9.75;;;11.20;87.60;;;;;;5050824;28;20032;-76
2024/02/28 09:01:16;;;;;;;14.68;9.60;;;11.20;87.50;;;;;;5032745;28;20025;-76
2024/02/28 09:03:42;;;;;;;14.80;9.65;;;11.20;87.50;;;;;;5032382;28;20048;-75
2024/02/28 09:06:08;;;;;;;15.13;10.15;;;11.20;87.40;;;;;;5032408;28;20248;-75
2024/02/28 09:08:33;;;;;;;15.27;10.00;;;11.20;87.40;;;;;;5050528;28;20036;-76
2024/02/28 09:10:58;;;;;;;15.88;10.07;;;11.20;87.40;;;;;;5050801;28;20021;-77
2024/02/28 09:13:24;;;;;;;14.70;9.95;;;11.20;87.40;;;;;;5050453;28;20025;-75
2024/02/28 09:15:49;;;;;;;14.80;9.18;;;11.20;87.50;;;;;;5033008;28;20021;-75
2024/02/28 09:18:16;;;;;;;14.65;9.77;;;11.20;87.50;;;;;;5050545;28;20035;-76
2024/02/28 09:20:42;;;;;;;13.95;9.10;;;11.20;87.60;;;;;;5050642;28;20048;-75
2024/02/28 09:23:07;;;;;;;14.65;10.00;;;11.20;87.60;;;;;;5032445;28;20067;-75
2024/02/28 09:25:34;;;;;;;15.63;9.48;;;11.20;87.60;;;;;;5032548;28;20024;-75
2024/02/28 09:28:00;;;;;;;15.38;9.57;;;11.20;87.60;;;;;;5050453;28;20036;-76
2024/02/28 09:30:25;;;;;;;26.77;10.85;;;11.20;87.50;;;;;;5032585;28;20013;-76
2024/02/28 09:32:51;;;;;;;31.60;14.88;;;11.20;87.70;;;;;;5050569;28;20036;-76
2024/02/28 09:35:17;;;;;;;33.72;14.82;;;11.20;84.40;;;;;;5050510;28;20499;-75
2024/02/28 09:37:42;;;;;;;27.42;13.82;;;11.20;85.40;;;;;;5032656;28;20112;-76
2024/02/28 09:40:12;;;;;;;28.10;13.75;;;11.20;85.60;;;;;;5029171;28;20033;-76
2024/02/28 09:42:38;;;;;;;26.58;13.77;;;11.20;85.70;;;;;;5031680;28;20064;-75
2024/02/28 09:45:04;;;;;;;35.53;13.48;;;11.20;85.80;;;;;;5050382;28;20029;-77
2024/02/28 09:47:30;;;;;;;29.25;13.20;;;11.20;85.90;;;;;;5031526;28;20083;-75
2024/02/28 09:50:01;;;;;;;26.20;13.52;;;11.20;86.20;;;;;;5049813;28;20018;-76
2024/02/28 09:52:27;;;;;;;24.08;12.80;;;11.20;86.30;;;;;;5031458;28;20025;-76
2024/02/28 09:54:53;;;;;;;23.77;12.55;;;11.20;86.50;;;;;;5032234;28;20500;-76
2024/02/28 09:57:18;;;;;;;23.15;13.05;;;11.20;86.50;;;;;;5032107;28;20031;-75
2024/02/28 09:59:45;;;;;;;24.17;12.55;;;11.20;86.70;;;;;;5050162;28;20504;-75
2024/02/28 10:02:11;;;;;;;21.13;12.50;;;11.20;86.70;;;;;;5049512;28;20068;-76
2024/02/28 10:04:37;;;;;;;23.15;13.27;;;11.20;86.80;;;;;;5050145;28;20079;-75
2024/02/28 10:07:13;;;;;;;25.00;12.98;;;11.20;86.80;;;;;;5032444;28;20370;-76
2024/02/28 10:09:39;;;;;;;22.88;12.60;;;11.20;86.90;;;;;;5049745;28;20036;-76
2024/02/28 10:12:05;;;;;;;21.83;12.65;;;11.20;86.80;;;;;;5049734;28;20032;-76
2024/02/28 10:14:30;;;;;;;21.48;12.80;;;11.20;86.90;;;;;;5049947;28;20112;-76
2024/02/28 10:16:56;;;;;;;22.15;12.60;;;11.20;86.90;;;;;;5032266;28;20025;-76
2024/02/28 10:19:21;;;;;;;26.73;11.90;;;11.30;87.00;;;;;;5053204;28;20099;-75
2024/02/28 10:21:47;;;;;;;21.63;12.25;;;11.30;87.10;;;;;;5035601;28;20021;-75
2024/02/28 10:24:13;;;;;;;24.63;13.15;;;11.20;87.00;;;;;;5035768;28;20044;-76
2024/02/28 10:26:44;;;;;;;20.80;12.48;;;11.30;87.10;;;;;;5035656;28;20567;-76
2024/02/28 10:29:09;;;;;;;22.80;12.55;;;11.30;87.10;;;;;;5053515;28;20041;-76
2024/02/28 10:31:35;;;;;;;20.48;12.45;;;11.30;87.10;;;;;;5035481;28;20154;-75
2024/02/28 10:34:02;;;;;;;21.60;12.68;;;11.30;87.20;;;;;;5053223;28;20029;-76
2024/02/28 10:36:31;;;;;;;20.70;12.15;;;11.20;87.00;;;;;;5035501;28;20186;-76
2024/02/28 10:38:57;;;;;;;19.10;11.82;;;11.20;87.10;;;;;;5035430;28;20025;-75
2024/02/28 10:41:26;;;;;;;21.50;12.02;;;11.20;87.10;;;;;;5053201;28;20112;-75
2024/02/28 10:43:53;;;;;;;20.33;12.18;;;11.30;87.20;;;;;;5035132;28;20516;-76
2024/02/28 10:46:20;;;;;;;20.40;11.98;;;11.30;87.10;;;;;;5035345;28;20103;-76
2024/02/28 10:48:46;;;;;;;18.17;11.65;;;11.30;87.10;;;;;;5053246;28;20032;-75
2024/02/28 10:51:15;;;;;;;19.15;12.10;;;11.20;87.10;;;;;;5035348;28;20013;-75
2024/02/28 10:53:41;;;;;;;19.67;11.75;;;11.30;87.20;;;;;;5033238;28;20075;-75
2024/02/28 10:56:10;;;;;;;19.63;11.35;;;11.30;87.20;;;;;;5035183;28;20397;-75
2024/02/28 10:58:42;;;;;;;20.33;12.52;;;11.30;87.10;;;;;;5034968;28;20090;-75
2024/02/28 11:01:08;;;;;;;20.70;11.70;;;11.30;87.20;;;;;;5052573;28;20021;-75
2024/02/28 11:03:34;;;;;;;19.95;11.95;;;11.20;87.10;;;;;;5052303;28;20068;-75
2024/02/28 11:06:00;;;;;;;18.00;11.25;;;11.20;87.20;;;;;;5034970;28;20087;-75
2024/02/28 11:08:28;;;;;;;18.60;11.35;;;11.20;87.00;;;;;;5052809;28;20029;-76
2024/02/28 11:11:04;;;;;;;19.52;11.65;;;11.20;87.10;;;;;;5052897;28;20104;-75
2024/02/28 11:13:30;;;;;;;19.55;11.55;;;11.30;87.20;;;;;;5034213;28;20048;-74
2024/02/28 11:16:07;;;;;;;19.40;11.77;;;11.30;87.20;;;;;;5052630;28;20025;-75
2024/02/28 11:18:33;;;;;;;19.58;11.07;;;11.30;87.20;;;;;;5034539;28;20017;-75
2024/02/28 11:20:58;;;;;;;19.25;11.68;;;11.30;87.20;;;;;;5034732;28;20029;-76
2024/02/28 11:23:24;;;;;;;19.20;11.70;;;11.30;87.30;;;;;;5052299;28;20048;-75
2024/02/28 11:25:49;;;;;;;18.38;11.38;;;11.20;87.50;;;;;;5052269;28;20020;-74
2024/02/28 11:28:16;;;;;;;19.00;11.52;;;11.20;87.20;;;;;;5034183;28;20108;-76
2024/02/28 11:30:41;;;;;;;18.13;11.02;;;11.30;87.30;;;;;;5034920;28;20146;-76
2024/02/28 11:33:08;;;;;;;18.63;10.98;;;11.30;87.30;;;;;;5034808;28;20037;-76
2024/02/28 11:35:34;;;;;;;20.58;11.65;;;11.20;87.30;;;;;;5034698;28;20388;-76
2024/02/28 11:38:00;;;;;;;18.65;11.00;;;11.20;87.30;;;;;;5052948;28;20097;-76
2024/02/28 11:40:26;;;;;;;19.67;11.70;;;11.30;87.30;;;;;;5053195;28;20029;-76
2024/02/28 11:42:52;;;;;;;19.58;11.38;;;11.30;87.40;;;;;;5034918;28;20029;-76
2024/02/28 11:45:18;;;;;;;20.40;11.73;;;11.30;87.40;;;;;;5035013;28;20504;-76
2024/02/28 11:47:45;;;;;;;17.92;10.80;;;11.30;87.50;;;;;;5052965;28;20037;-75
2024/02/28 11:50:11;;;;;;;18.10;10.90;;;11.30;87.50;;;;;;5034681;28;20108;-76
2024/02/28 11:52:37;;;;;;;19.10;11.68;;;11.30;87.40;;;;;;5034614;28;20466;-76
2024/02/28 11:55:02;;;;;;;17.65;10.95;;;11.30;87.50;;;;;;5035152;28;20021;-75
2024/02/28 11:57:30;;;;;;;16.83;11.02;;;11.30;87.50;;;;;;5034595;28;20027;-76
2024/02/28 11:59:56;;;;;;;19.70;11.52;;;11.30;87.50;;;;;;5034859;28;20028;-77
2024/02/28 12:02:25;;;;;;;17.25;10.38;;;11.30;87.50;;;;;;5052140;28;20032;-77
2024/02/28 12:04:51;;;;;;;19.10;10.68;;;11.20;87.50;;;;;;5034495;28;20397;-76
2024/02/28 12:07:16;;;;;;;17.25;10.63;;;11.20;87.40;;;;;;5052635;28;20025;-76
2024/02/28 12:09:44;;;;;;;18.15;10.75;;;11.30;87.50;;;;;;5052860;28;20100;-76
2024/02/28 12:12:11;;;;;;;19.30;11.18;;;11.30;87.60;;;;;;5052020;28;20103;-76
2024/02/28 12:14:41;;;;;;;17.70;10.52;;;11.20;87.50;;;;;;5034715;28;20025;-76
2024/02/28 12:17:09;;;;;;;17.13;10.93;;;11.30;87.60;;;;;;5052278;28;20028;-76
2024/02/28 12:19:35;;;;;;;17.88;10.77;;;11.30;87.50;;;;;;5052154;28;20048;-76
2024/02/28 12:22:00;;;;;;;19.27;11.00;;;11.30;87.50;;;;;;5034514;28;20465;-76
2024/02/28 12:24:26;;;;;;;18.20;10.50;;;11.30;87.60;;;;;;5034589;28;20033;-76